Terminal Aerodrome Forecast
Issued by NWS

Home | Current Version | Previous Version | Text Only | Print | Product List | Glossary On
Versions: 1 2 3 4 5 6 7 8 9 10 11 12 13 14 15 16 17 18 19 20 21 22 23 24 25 26 27 28
000
FTUS41 KBUF 300310 AAA
TAFJHW
TAF AMD
KJHW 300310Z 3003/3024 18004KT P6SM FEW045 SCT050 OVC080
     FM300400 00000KT P6SM VCSH OVC045
     FM300700 19004KT P6SM VCSH OVC045
     FM301000 17004KT P6SM OVC050
     FM301600 23005KT P6SM BKN035
     FM301800 27006KT P6SM VCSH BKN030
     FM302000 27008KT P6SM BKN035
     FM302300 25006KT P6SM BKN050
      AMD LTD TO CLD VIS AND WIND=

USA.gov is the U.S. government's official web portal to all federal, state and local government web resources and services.